sensor_id;sensor_type;location;lat;lon;timestamp;P1;durP1;ratioP1;P2;durP2;ratioP2
65567;SDS011;52211;50.154;8.682;2023-02-08T00:01:25;14.33;;;11.73;;
65567;SDS011;52211;50.154;8.682;2023-02-08T00:03:55;16.10;;;10.67;;
65567;SDS011;52211;50.154;8.682;2023-02-08T00:06:24;15.07;;;11.00;;
65567;SDS011;52211;50.154;8.682;2023-02-08T00:08:53;14.93;;;11.10;;
65567;SDS011;52211;50.154;8.682;2023-02-08T00:11:25;16.90;;;10.77;;
65567;SDS011;52211;50.154;8.682;2023-02-08T00:13:57;15.87;;;10.20;;
65567;SDS011;52211;50.154;8.682;2023-02-08T00:16:28;14.43;;;10.70;;
65567;SDS011;52211;50.154;8.682;2023-02-08T00:18:55;16.07;;;11.23;;
65567;SDS011;52211;50.154;8.682;2023-02-08T00:21:26;15.63;;;11.07;;
65567;SDS011;52211;50.154;8.682;2023-02-08T00:23:55;13.00;;;9.57;;
65567;SDS011;52211;50.154;8.682;2023-02-08T00:26:27;13.77;;;10.60;;
65567;SDS011;52211;50.154;8.682;2023-02-08T00:29:01;13.77;;;10.83;;
65567;SDS011;52211;50.154;8.682;2023-02-08T00:31:33;15.17;;;10.50;;
65567;SDS011;52211;50.154;8.682;2023-02-08T00:34:05;13.50;;;10.47;;
65567;SDS011;52211;50.154;8.682;2023-02-08T00:36:36;13.67;;;10.57;;
65567;SDS011;52211;50.154;8.682;2023-02-08T00:39:08;14.00;;;9.93;;
65567;SDS011;52211;50.154;8.682;2023-02-08T00:41:35;14.43;;;10.73;;
65567;SDS011;52211;50.154;8.682;2023-02-08T00:44:09;14.33;;;9.70;;
65567;SDS011;52211;50.154;8.682;2023-02-08T00:46:38;17.37;;;11.13;;
65567;SDS011;52211;50.154;8.682;2023-02-08T00:49:05;13.53;;;9.97;;
65567;SDS011;52211;50.154;8.682;2023-02-08T00:51:36;12.63;;;9.97;;
65567;SDS011;52211;50.154;8.682;2023-02-08T00:54:05;14.80;;;11.03;;
65567;SDS011;52211;50.154;8.682;2023-02-08T00:56:32;11.93;;;9.37;;
65567;SDS011;52211;50.154;8.682;2023-02-08T00:58:59;13.13;;;9.50;;
65567;SDS011;52211;50.154;8.682;2023-02-08T01:01:26;13.17;;;10.10;;
65567;SDS011;52211;50.154;8.682;2023-02-08T01:03:58;12.00;;;10.57;;
65567;SDS011;52211;50.154;8.682;2023-02-08T01:06:25;13.43;;;10.27;;
65567;SDS011;52211;50.154;8.682;2023-02-08T01:08:52;13.93;;;10.47;;
65567;SDS011;52211;50.154;8.682;2023-02-08T01:11:22;13.70;;;10.43;;
65567;SDS011;52211;50.154;8.682;2023-02-08T01:13:53;15.00;;;10.57;;
65567;SDS011;52211;50.154;8.682;2023-02-08T01:16:25;14.63;;;11.10;;
65567;SDS011;52211;50.154;8.682;2023-02-08T01:18:59;15.90;;;10.07;;
65567;SDS011;52211;50.154;8.682;2023-02-08T01:21:34;12.33;;;9.80;;
65567;SDS011;52211;50.154;8.682;2023-02-08T01:24:07;13.70;;;9.40;;
65567;SDS011;52211;50.154;8.682;2023-02-08T01:26:37;14.50;;;10.57;;
65567;SDS011;52211;50.154;8.682;2023-02-08T01:29:04;11.97;;;9.93;;
65567;SDS011;52211;50.154;8.682;2023-02-08T01:31:33;14.60;;;10.73;;
65567;SDS011;52211;50.154;8.682;2023-02-08T01:34:06;16.07;;;10.40;;
65567;SDS011;52211;50.154;8.682;2023-02-08T01:36:37;15.60;;;11.50;;
65567;SDS011;52211;50.154;8.682;2023-02-08T01:39:08;12.13;;;9.77;;
65567;SDS011;52211;50.154;8.682;2023-02-08T01:41:39;12.90;;;10.23;;
65567;SDS011;52211;50.154;8.682;2023-02-08T01:46:44;12.37;;;10.03;;
65567;SDS011;52211;50.154;8.682;2023-02-08T01:49:21;16.10;;;10.70;;
65567;SDS011;52211;50.154;8.682;2023-02-08T01:54:51;13.07;;;10.50;;
65567;SDS011;52211;50.154;8.682;2023-02-08T01:57:28;12.03;;;10.20;;
65567;SDS011;52211;50.154;8.682;2023-02-08T02:00:02;14.73;;;9.53;;
65567;SDS011;52211;50.154;8.682;2023-02-08T02:02:39;14.33;;;9.97;;
65567;SDS011;52211;50.154;8.682;2023-02-08T02:05:08;12.73;;;9.87;;
65567;SDS011;52211;50.154;8.682;2023-02-08T02:07:37;13.23;;;10.63;;
65567;SDS011;52211;50.154;8.682;2023-02-08T02:12:46;14.77;;;10.93;;
65567;SDS011;52211;50.154;8.682;2023-02-08T02:15:21;12.67;;;9.40;;
65567;SDS011;52211;50.154;8.682;2023-02-08T02:17:52;15.43;;;10.03;;
65567;SDS011;52211;50.154;8.682;2023-02-08T02:26:14;12.97;;;10.00;;
65567;SDS011;52211;50.154;8.682;2023-02-08T02:35:34;13.43;;;9.23;;
65567;SDS011;52211;50.154;8.682;2023-02-08T02:44:12;12.20;;;9.33;;
65567;SDS011;52211;50.154;8.682;2023-02-08T02:47:21;12.23;;;9.53;;
65567;SDS011;52211;50.154;8.682;2023-02-08T02:49:53;13.37;;;10.13;;
65567;SDS011;52211;50.154;8.682;2023-02-08T02:52:37;12.27;;;8.97;;
65567;SDS011;52211;50.154;8.682;2023-02-08T02:55:19;13.20;;;10.03;;
65567;SDS011;52211;50.154;8.682;2023-02-08T02:57:51;12.90;;;10.13;;
65567;SDS011;52211;50.154;8.682;2023-02-08T03:00:25;12.17;;;9.43;;
65567;SDS011;52211;50.154;8.682;2023-02-08T03:02:58;13.33;;;10.20;;
65567;SDS011;52211;50.154;8.682;2023-02-08T03:05:25;14.30;;;10.30;;
65567;SDS011;52211;50.154;8.682;2023-02-08T03:14:37;13.07;;;10.03;;
65567;SDS011;52211;50.154;8.682;2023-02-08T03:20:14;16.03;;;10.13;;
65567;SDS011;52211;50.154;8.682;2023-02-08T03:22:55;15.13;;;10.17;;
65567;SDS011;52211;50.154;8.682;2023-02-08T03:25:33;12.57;;;9.90;;
65567;SDS011;52211;50.154;8.682;2023-02-08T03:34:01;14.50;;;9.80;;
65567;SDS011;52211;50.154;8.682;2023-02-08T03:36:41;13.67;;;9.97;;
65567;SDS011;52211;50.154;8.682;2023-02-08T03:39:25;12.70;;;9.40;;
65567;SDS011;52211;50.154;8.682;2023-02-08T03:42:00;13.97;;;9.50;;
65567;SDS011;52211;50.154;8.682;2023-02-08T03:44:43;14.47;;;10.03;;
65567;SDS011;52211;50.154;8.682;2023-02-08T03:47:24;13.50;;;9.77;;
65567;SDS011;52211;50.154;8.682;2023-02-08T03:50:03;16.77;;;10.77;;
65567;SDS011;52211;50.154;8.682;2023-02-08T03:52:35;11.03;;;9.53;;
65567;SDS011;52211;50.154;8.682;2023-02-08T03:55:06;15.27;;;10.10;;
65567;SDS011;52211;50.154;8.682;2023-02-08T04:00:44;15.93;;;9.93;;
65567;SDS011;52211;50.154;8.682;2023-02-08T04:03:23;13.60;;;9.47;;
65567;SDS011;52211;50.154;8.682;2023-02-08T04:06:00;10.17;;;8.87;;
65567;SDS011;52211;50.154;8.682;2023-02-08T04:08:35;14.97;;;10.13;;
65567;SDS011;52211;50.154;8.682;2023-02-08T04:11:04;12.40;;;9.47;;
65567;SDS011;52211;50.154;8.682;2023-02-08T04:13:38;12.10;;;9.50;;
65567;SDS011;52211;50.154;8.682;2023-02-08T04:16:08;10.27;;;9.13;;
65567;SDS011;52211;50.154;8.682;2023-02-08T04:18:39;12.33;;;9.30;;
65567;SDS011;52211;50.154;8.682;2023-02-08T04:21:09;11.97;;;9.17;;
65567;SDS011;52211;50.154;8.682;2023-02-08T04:23:38;12.93;;;9.07;;
65567;SDS011;52211;50.154;8.682;2023-02-08T04:26:10;13.83;;;9.20;;
65567;SDS011;52211;50.154;8.682;2023-02-08T04:28:39;13.90;;;10.17;;
65567;SDS011;52211;50.154;8.682;2023-02-08T04:31:08;13.90;;;9.43;;
65567;SDS011;52211;50.154;8.682;2023-02-08T04:33:35;14.97;;;10.33;;
65567;SDS011;52211;50.154;8.682;2023-02-08T04:36:04;11.90;;;9.53;;
65567;SDS011;52211;50.154;8.682;2023-02-08T04:38:34;12.30;;;9.47;;
65567;SDS011;52211;50.154;8.682;2023-02-08T04:41:08;13.50;;;9.60;;
65567;SDS011;52211;50.154;8.682;2023-02-08T04:43:39;12.60;;;9.87;;
65567;SDS011;52211;50.154;8.682;2023-02-08T04:46:06;12.47;;;9.30;;
65567;SDS011;52211;50.154;8.682;2023-02-08T04:48:38;13.97;;;9.40;;
65567;SDS011;52211;50.154;8.682;2023-02-08T04:51:05;13.70;;;9.57;;
65567;SDS011;52211;50.154;8.682;2023-02-08T04:53:34;14.40;;;10.43;;
65567;SDS011;52211;50.154;8.682;2023-02-08T04:56:01;10.87;;;9.20;;
65567;SDS011;52211;50.154;8.682;2023-02-08T04:58:30;15.13;;;9.70;;
65567;SDS011;52211;50.154;8.682;2023-02-08T05:00:57;15.33;;;10.20;;
65567;SDS011;52211;50.154;8.682;2023-02-08T05:03:24;10.93;;;9.20;;
65567;SDS011;52211;50.154;8.682;2023-02-08T05:05:58;13.13;;;9.53;;
65567;SDS011;52211;50.154;8.682;2023-02-08T05:08:26;13.63;;;9.67;;
65567;SDS011;52211;50.154;8.682;2023-02-08T05:10:55;11.30;;;8.43;;
65567;SDS011;52211;50.154;8.682;2023-02-08T05:13:24;12.90;;;9.70;;
65567;SDS011;52211;50.154;8.682;2023-02-08T05:15:53;12.70;;;9.00;;
65567;SDS011;52211;50.154;8.682;2023-02-08T05:18:20;11.50;;;8.50;;
65567;SDS011;52211;50.154;8.682;2023-02-08T05:20:53;11.80;;;9.33;;
65567;SDS011;52211;50.154;8.682;2023-02-08T05:23:29;12.20;;;9.63;;
65567;SDS011;52211;50.154;8.682;2023-02-08T05:25:59;11.90;;;8.67;;
65567;SDS011;52211;50.154;8.682;2023-02-08T05:28:36;13.30;;;9.37;;
65567;SDS011;52211;50.154;8.682;2023-02-08T05:33:42;11.67;;;8.80;;
65567;SDS011;52211;50.154;8.682;2023-02-08T05:36:14;11.57;;;9.37;;
65567;SDS011;52211;50.154;8.682;2023-02-08T05:38:44;12.00;;;8.57;;
65567;SDS011;52211;50.154;8.682;2023-02-08T05:41:10;10.90;;;8.97;;
65567;SDS011;52211;50.154;8.682;2023-02-08T05:43:42;12.73;;;8.70;;
65567;SDS011;52211;50.154;8.682;2023-02-08T05:46:11;11.83;;;9.20;;
65567;SDS011;52211;50.154;8.682;2023-02-08T05:48:41;11.53;;;9.43;;
65567;SDS011;52211;50.154;8.682;2023-02-08T05:51:08;13.00;;;8.57;;
65567;SDS011;52211;50.154;8.682;2023-02-08T05:53:37;12.93;;;9.40;;
65567;SDS011;52211;50.154;8.682;2023-02-08T05:56:04;11.40;;;8.67;;
65567;SDS011;52211;50.154;8.682;2023-02-08T05:58:39;13.30;;;9.40;;
65567;SDS011;52211;50.154;8.682;2023-02-08T06:01:14;12.20;;;9.33;;
65567;SDS011;52211;50.154;8.682;2023-02-08T06:03:40;12.23;;;8.77;;
65567;SDS011;52211;50.154;8.682;2023-02-08T06:06:12;12.20;;;9.33;;
65567;SDS011;52211;50.154;8.682;2023-02-08T06:08:44;13.70;;;9.00;;
65567;SDS011;52211;50.154;8.682;2023-02-08T06:11:14;12.97;;;8.93;;
65567;SDS011;52211;50.154;8.682;2023-02-08T06:13:41;12.27;;;8.73;;
65567;SDS011;52211;50.154;8.682;2023-02-08T06:16:13;15.10;;;9.43;;
65567;SDS011;52211;50.154;8.682;2023-02-08T06:18:44;13.13;;;8.27;;
65567;SDS011;52211;50.154;8.682;2023-02-08T06:21:13;13.50;;;9.63;;
65567;SDS011;52211;50.154;8.682;2023-02-08T06:23:42;11.90;;;9.57;;
65567;SDS011;52211;50.154;8.682;2023-02-08T06:26:12;14.73;;;9.43;;
65567;SDS011;52211;50.154;8.682;2023-02-08T06:28:38;11.03;;;8.73;;
65567;SDS011;52211;50.154;8.682;2023-02-08T06:31:05;12.57;;;8.43;;
65567;SDS011;52211;50.154;8.682;2023-02-08T06:33:37;12.30;;;9.33;;
65567;SDS011;52211;50.154;8.682;2023-02-08T06:36:04;11.27;;;8.77;;
65567;SDS011;52211;50.154;8.682;2023-02-08T06:38:34;10.93;;;8.90;;
65567;SDS011;52211;50.154;8.682;2023-02-08T06:41:03;12.33;;;9.13;;
65567;SDS011;52211;50.154;8.682;2023-02-08T06:43:32;12.63;;;9.10;;
65567;SDS011;52211;50.154;8.682;2023-02-08T06:46:04;11.30;;;8.83;;
65567;SDS011;52211;50.154;8.682;2023-02-08T06:48:36;12.47;;;9.60;;
65567;SDS011;52211;50.154;8.682;2023-02-08T06:51:05;12.30;;;8.97;;
65567;SDS011;52211;50.154;8.682;2023-02-08T06:53:36;11.67;;;8.73;;
65567;SDS011;52211;50.154;8.682;2023-02-08T06:56:03;10.60;;;9.40;;
65567;SDS011;52211;50.154;8.682;2023-02-08T06:58:30;13.03;;;8.33;;
65567;SDS011;52211;50.154;8.682;2023-02-08T07:00:59;13.60;;;9.60;;
65567;SDS011;52211;50.154;8.682;2023-02-08T07:03:28;10.87;;;8.17;;
65567;SDS011;52211;50.154;8.682;2023-02-08T07:05:57;12.33;;;9.53;;
65567;SDS011;52211;50.154;8.682;2023-02-08T07:08:33;9.60;;;8.03;;
65567;SDS011;52211;50.154;8.682;2023-02-08T07:11:04;11.07;;;8.87;;
65567;SDS011;52211;50.154;8.682;2023-02-08T07:13:38;12.17;;;9.30;;
65567;SDS011;52211;50.154;8.682;2023-02-08T07:16:08;14.27;;;9.03;;
65567;SDS011;52211;50.154;8.682;2023-02-08T07:18:38;11.43;;;8.77;;
65567;SDS011;52211;50.154;8.682;2023-02-08T07:21:07;9.93;;;7.93;;
65567;SDS011;52211;50.154;8.682;2023-02-08T07:23:38;13.63;;;8.90;;
65567;SDS011;52211;50.154;8.682;2023-02-08T07:26:11;11.97;;;8.37;;
65567;SDS011;52211;50.154;8.682;2023-02-08T07:28:40;15.47;;;9.43;;
65567;SDS011;52211;50.154;8.682;2023-02-08T07:31:13;9.23;;;8.03;;
65567;SDS011;52211;50.154;8.682;2023-02-08T07:33:44;12.57;;;9.20;;
65567;SDS011;52211;50.154;8.682;2023-02-08T07:36:16;11.90;;;8.70;;
65567;SDS011;52211;50.154;8.682;2023-02-08T07:38:42;12.03;;;8.57;;
65567;SDS011;52211;50.154;8.682;2023-02-08T07:41:10;13.00;;;8.70;;
65567;SDS011;52211;50.154;8.682;2023-02-08T07:43:52;12.43;;;8.60;;
65567;SDS011;52211;50.154;8.682;2023-02-08T07:46:24;10.90;;;8.50;;
65567;SDS011;52211;50.154;8.682;2023-02-08T07:48:51;11.67;;;8.07;;
65567;SDS011;52211;50.154;8.682;2023-02-08T07:51:18;11.07;;;7.97;;
65567;SDS011;52211;50.154;8.682;2023-02-08T07:53:49;14.00;;;9.03;;
65567;SDS011;52211;50.154;8.682;2023-02-08T07:56:21;11.33;;;8.67;;
65567;SDS011;52211;50.154;8.682;2023-02-08T07:58:51;9.77;;;8.50;;
65567;SDS011;52211;50.154;8.682;2023-02-08T08:01:18;13.77;;;8.83;;
65567;SDS011;52211;50.154;8.682;2023-02-08T08:03:50;12.47;;;8.60;;
65567;SDS011;52211;50.154;8.682;2023-02-08T08:06:18;12.87;;;9.37;;
65567;SDS011;52211;50.154;8.682;2023-02-08T08:08:53;15.43;;;9.43;;
65567;SDS011;52211;50.154;8.682;2023-02-08T08:11:27;11.83;;;8.57;;
65567;SDS011;52211;50.154;8.682;2023-02-08T08:13:54;12.80;;;8.27;;
65567;SDS011;52211;50.154;8.682;2023-02-08T08:16:24;11.10;;;8.13;;
65567;SDS011;52211;50.154;8.682;2023-02-08T08:18:58;12.50;;;8.97;;
65567;SDS011;52211;50.154;8.682;2023-02-08T08:21:27;11.70;;;7.67;;
65567;SDS011;52211;50.154;8.682;2023-02-08T08:23:54;12.07;;;8.53;;
65567;SDS011;52211;50.154;8.682;2023-02-08T08:26:26;9.77;;;7.67;;
65567;SDS011;52211;50.154;8.682;2023-02-08T08:28:58;11.87;;;9.20;;
65567;SDS011;52211;50.154;8.682;2023-02-08T08:31:28;10.13;;;8.97;;
65567;SDS011;52211;50.154;8.682;2023-02-08T08:33:56;11.77;;;8.57;;
65567;SDS011;52211;50.154;8.682;2023-02-08T08:36:22;11.70;;;9.13;;
65567;SDS011;52211;50.154;8.682;2023-02-08T08:38:54;12.33;;;8.43;;
65567;SDS011;52211;50.154;8.682;2023-02-08T08:41:23;11.20;;;8.47;;
65567;SDS011;52211;50.154;8.682;2023-02-08T08:43:54;14.50;;;9.17;;
65567;SDS011;52211;50.154;8.682;2023-02-08T08:46:26;12.10;;;8.47;;
65567;SDS011;52211;50.154;8.682;2023-02-08T08:48:53;13.43;;;9.60;;
65567;SDS011;52211;50.154;8.682;2023-02-08T08:51:26;12.63;;;9.80;;
65567;SDS011;52211;50.154;8.682;2023-02-08T08:54:05;14.30;;;9.67;;
65567;SDS011;52211;50.154;8.682;2023-02-08T08:56:34;13.50;;;9.97;;
65567;SDS011;52211;50.154;8.682;2023-02-08T08:59:01;12.13;;;8.40;;
65567;SDS011;52211;50.154;8.682;2023-02-08T09:01:28;14.50;;;9.57;;
65567;SDS011;52211;50.154;8.682;2023-02-08T09:03:57;12.43;;;8.63;;
65567;SDS011;52211;50.154;8.682;2023-02-08T09:06:27;10.73;;;8.60;;
65567;SDS011;52211;50.154;8.682;2023-02-08T09:08:58;12.00;;;8.57;;
65567;SDS011;52211;50.154;8.682;2023-02-08T09:11:25;10.47;;;8.13;;
65567;SDS011;52211;50.154;8.682;2023-02-08T09:13:54;10.77;;;8.47;;
65567;SDS011;52211;50.154;8.682;2023-02-08T09:16:23;11.60;;;7.93;;
65567;SDS011;52211;50.154;8.682;2023-02-08T09:18:51;10.83;;;8.07;;
65567;SDS011;52211;50.154;8.682;2023-02-08T09:21:22;13.97;;;9.23;;
65567;SDS011;52211;50.154;8.682;2023-02-08T09:23:50;12.90;;;8.73;;
65567;SDS011;52211;50.154;8.682;2023-02-08T09:26:19;12.07;;;8.33;;
65567;SDS011;52211;50.154;8.682;2023-02-08T09:28:47;13.73;;;8.80;;
65567;SDS011;52211;50.154;8.682;2023-02-08T09:33:54;12.43;;;8.77;;
65567;SDS011;52211;50.154;8.682;2023-02-08T09:36:24;12.67;;;8.07;;
65567;SDS011;52211;50.154;8.682;2023-02-08T09:38:59;11.73;;;7.37;;
65567;SDS011;52211;50.154;8.682;2023-02-08T09:41:53;10.87;;;7.77;;
65567;SDS011;52211;50.154;8.682;2023-02-08T09:44:42;14.00;;;8.70;;
65567;SDS011;52211;50.154;8.682;2023-02-08T09:47:34;10.83;;;7.10;;
65567;SDS011;52211;50.154;8.682;2023-02-08T09:52:41;10.20;;;8.17;;
65567;SDS011;52211;50.154;8.682;2023-02-08T09:58:04;10.03;;;7.30;;
65567;SDS011;52211;50.154;8.682;2023-02-08T10:00:47;12.43;;;8.47;;
65567;SDS011;52211;50.154;8.682;2023-02-08T10:03:26;9.17;;;7.70;;
65567;SDS011;52211;50.154;8.682;2023-02-08T10:06:06;10.37;;;8.07;;
65567;SDS011;52211;50.154;8.682;2023-02-08T10:08:44;11.77;;;7.83;;
65567;SDS011;52211;50.154;8.682;2023-02-08T10:20:27;15.60;;;10.13;;
65567;SDS011;52211;50.154;8.682;2023-02-08T10:26:34;13.77;;;8.33;;
65567;SDS011;52211;50.154;8.682;2023-02-08T10:32:14;12.40;;;7.67;;
65567;SDS011;52211;50.154;8.682;2023-02-08T10:35:18;11.37;;;7.33;;
65567;SDS011;52211;50.154;8.682;2023-02-08T10:38:16;13.17;;;8.30;;
65567;SDS011;52211;50.154;8.682;2023-02-08T10:40:54;11.30;;;8.07;;
65567;SDS011;52211;50.154;8.682;2023-02-08T10:52:29;11.77;;;8.27;;
65567;SDS011;52211;50.154;8.682;2023-02-08T10:55:01;15.40;;;9.40;;
65567;SDS011;52211;50.154;8.682;2023-02-08T10:57:41;12.57;;;8.33;;
65567;SDS011;52211;50.154;8.682;2023-02-08T11:00:19;15.07;;;8.53;;
65567;SDS011;52211;50.154;8.682;2023-02-08T11:02:53;13.90;;;8.67;;
65567;SDS011;52211;50.154;8.682;2023-02-08T11:05:31;16.40;;;9.13;;
65567;SDS011;52211;50.154;8.682;2023-02-08T11:08:11;12.27;;;8.40;;
65567;SDS011;52211;50.154;8.682;2023-02-08T11:11:04;11.70;;;8.47;;
65567;SDS011;52211;50.154;8.682;2023-02-08T11:13:38;12.17;;;8.50;;
65567;SDS011;52211;50.154;8.682;2023-02-08T11:16:11;11.90;;;9.07;;
65567;SDS011;52211;50.154;8.682;2023-02-08T11:18:52;15.20;;;9.10;;
65567;SDS011;52211;50.154;8.682;2023-02-08T11:21:35;13.67;;;8.80;;
65567;SDS011;52211;50.154;8.682;2023-02-08T11:24:16;11.80;;;8.23;;
65567;SDS011;52211;50.154;8.682;2023-02-08T11:27:22;11.60;;;8.30;;
65567;SDS011;52211;50.154;8.682;2023-02-08T11:30:09;12.97;;;8.73;;
65567;SDS011;52211;50.154;8.682;2023-02-08T11:33:13;12.93;;;9.13;;
65567;SDS011;52211;50.154;8.682;2023-02-08T11:35:40;11.60;;;8.10;;
65567;SDS011;52211;50.154;8.682;2023-02-08T11:38:08;11.10;;;8.07;;
65567;SDS011;52211;50.154;8.682;2023-02-08T11:40:53;10.30;;;7.90;;
65567;SDS011;52211;50.154;8.682;2023-02-08T11:43:29;12.20;;;9.13;;
65567;SDS011;52211;50.154;8.682;2023-02-08T11:46:06;12.23;;;8.23;;
65567;SDS011;52211;50.154;8.682;2023-02-08T11:48:42;12.27;;;8.50;;
65567;SDS011;52211;50.154;8.682;2023-02-08T11:51:24;12.17;;;8.37;;
65567;SDS011;52211;50.154;8.682;2023-02-08T11:54:05;11.70;;;8.20;;
65567;SDS011;52211;50.154;8.682;2023-02-08T11:57:10;11.17;;;8.63;;
65567;SDS011;52211;50.154;8.682;2023-02-08T11:59:51;12.27;;;8.90;;
65567;SDS011;52211;50.154;8.682;2023-02-08T12:02:48;13.10;;;8.63;;
65567;SDS011;52211;50.154;8.682;2023-02-08T12:05:20;10.77;;;7.97;;
65567;SDS011;52211;50.154;8.682;2023-02-08T12:08:26;11.50;;;8.30;;
65567;SDS011;52211;50.154;8.682;2023-02-08T12:11:39;10.00;;;7.77;;
65567;SDS011;52211;50.154;8.682;2023-02-08T12:17:55;12.70;;;8.40;;
65567;SDS011;52211;50.154;8.682;2023-02-08T12:31:59;13.57;;;8.70;;
65567;SDS011;52211;50.154;8.682;2023-02-08T12:49:59;9.47;;;6.90;;
65567;SDS011;52211;50.154;8.682;2023-02-08T12:52:54;8.90;;;6.40;;
65567;SDS011;52211;50.154;8.682;2023-02-08T12:55:34;8.60;;;6.20;;
65567;SDS011;52211;50.154;8.682;2023-02-08T12:58:29;8.27;;;6.03;;
65567;SDS011;52211;50.154;8.682;2023-02-08T13:01:17;7.50;;;5.83;;
65567;SDS011;52211;50.154;8.682;2023-02-08T13:03:50;6.67;;;5.50;;
65567;SDS011;52211;50.154;8.682;2023-02-08T13:06:35;7.33;;;5.47;;
65567;SDS011;52211;50.154;8.682;2023-02-08T13:09:16;6.60;;;5.00;;
65567;SDS011;52211;50.154;8.682;2023-02-08T13:14:36;6.03;;;4.70;;
65567;SDS011;52211;50.154;8.682;2023-02-08T13:19:51;6.40;;;5.03;;
65567;SDS011;52211;50.154;8.682;2023-02-08T13:22:27;6.17;;;4.77;;
65567;SDS011;52211;50.154;8.682;2023-02-08T13:25:00;5.27;;;4.27;;
65567;SDS011;52211;50.154;8.682;2023-02-08T13:27:35;5.60;;;4.53;;
65567;SDS011;52211;50.154;8.682;2023-02-08T13:30:04;6.43;;;5.73;;
65567;SDS011;52211;50.154;8.682;2023-02-08T13:32:36;5.73;;;4.80;;
65567;SDS011;52211;50.154;8.682;2023-02-08T13:37:55;5.17;;;4.67;;
65567;SDS011;52211;50.154;8.682;2023-02-08T13:40:31;5.77;;;4.93;;
65567;SDS011;52211;50.154;8.682;2023-02-08T13:43:03;7.03;;;5.00;;
65567;SDS011;52211;50.154;8.682;2023-02-08T13:45:35;5.93;;;4.83;;
65567;SDS011;52211;50.154;8.682;2023-02-08T13:48:11;4.57;;;3.97;;
65567;SDS011;52211;50.154;8.682;2023-02-08T13:59:03;5.13;;;4.63;;
65567;SDS011;52211;50.154;8.682;2023-02-08T14:10:15;4.53;;;3.90;;
65567;SDS011;52211;50.154;8.682;2023-02-08T14:12:41;4.50;;;4.10;;
65567;SDS011;52211;50.154;8.682;2023-02-08T14:15:24;7.80;;;4.70;;
65567;SDS011;52211;50.154;8.682;2023-02-08T14:18:04;5.03;;;4.50;;
65567;SDS011;52211;50.154;8.682;2023-02-08T14:20:59;5.73;;;3.70;;
65567;SDS011;52211;50.154;8.682;2023-02-08T14:23:32;4.23;;;3.83;;
65567;SDS011;52211;50.154;8.682;2023-02-08T14:26:07;4.23;;;3.83;;
65567;SDS011;52211;50.154;8.682;2023-02-08T14:28:45;4.70;;;3.97;;
65567;SDS011;52211;50.154;8.682;2023-02-08T14:31:33;5.33;;;4.13;;
65567;SDS011;52211;50.154;8.682;2023-02-08T14:34:26;4.57;;;4.17;;
65567;SDS011;52211;50.154;8.682;2023-02-08T14:39:42;6.43;;;4.33;;
65567;SDS011;52211;50.154;8.682;2023-02-08T14:42:38;5.67;;;3.93;;
65567;SDS011;52211;50.154;8.682;2023-02-08T14:45:38;5.30;;;3.77;;
65567;SDS011;52211;50.154;8.682;2023-02-08T14:50:50;4.97;;;3.93;;
65567;SDS011;52211;50.154;8.682;2023-02-08T14:53:23;4.33;;;3.93;;
65567;SDS011;52211;50.154;8.682;2023-02-08T14:59:06;5.77;;;3.73;;
65567;SDS011;52211;50.154;8.682;2023-02-08T15:01:50;4.30;;;3.90;;
65567;SDS011;52211;50.154;8.682;2023-02-08T15:04:27;4.93;;;3.97;;
65567;SDS011;52211;50.154;8.682;2023-02-08T15:07:16;4.67;;;3.63;;
65567;SDS011;52211;50.154;8.682;2023-02-08T15:10:02;5.93;;;4.27;;
65567;SDS011;52211;50.154;8.682;2023-02-08T15:12:38;4.40;;;4.00;;
65567;SDS011;52211;50.154;8.682;2023-02-08T15:17:59;7.13;;;5.37;;
65567;SDS011;52211;50.154;8.682;2023-02-08T15:20:30;5.73;;;4.37;;
65567;SDS011;52211;50.154;8.682;2023-02-08T15:23:20;6.93;;;4.70;;
65567;SDS011;52211;50.154;8.682;2023-02-08T15:28:49;8.40;;;5.73;;
65567;SDS011;52211;50.154;8.682;2023-02-08T15:31:17;7.60;;;5.27;;
65567;SDS011;52211;50.154;8.682;2023-02-08T15:33:51;6.27;;;4.87;;
65567;SDS011;52211;50.154;8.682;2023-02-08T15:36:33;4.93;;;4.30;;
65567;SDS011;52211;50.154;8.682;2023-02-08T15:39:15;5.83;;;4.83;;
65567;SDS011;52211;50.154;8.682;2023-02-08T15:42:04;5.40;;;4.90;;
65567;SDS011;52211;50.154;8.682;2023-02-08T15:44:43;5.53;;;4.70;;
65567;SDS011;52211;50.154;8.682;2023-02-08T15:47:25;4.97;;;4.30;;
65567;SDS011;52211;50.154;8.682;2023-02-08T15:50:04;6.27;;;4.20;;
65567;SDS011;52211;50.154;8.682;2023-02-08T15:52:43;6.77;;;5.10;;
65567;SDS011;52211;50.154;8.682;2023-02-08T15:55:16;7.20;;;5.43;;
65567;SDS011;52211;50.154;8.682;2023-02-08T16:00:20;5.97;;;4.80;;
65567;SDS011;52211;50.154;8.682;2023-02-08T16:02:58;7.97;;;4.87;;
65567;SDS011;52211;50.154;8.682;2023-02-08T16:05:33;6.00;;;4.50;;
65567;SDS011;52211;50.154;8.682;2023-02-08T16:08:04;8.17;;;5.20;;
65567;SDS011;52211;50.154;8.682;2023-02-08T16:10:33;5.80;;;5.20;;
65567;SDS011;52211;50.154;8.682;2023-02-08T16:13:19;5.37;;;4.60;;
65567;SDS011;52211;50.154;8.682;2023-02-08T16:15:51;7.17;;;4.97;;
65567;SDS011;52211;50.154;8.682;2023-02-08T16:21:05;7.40;;;5.10;;
65567;SDS011;52211;50.154;8.682;2023-02-08T16:23:51;7.97;;;5.53;;
65567;SDS011;52211;50.154;8.682;2023-02-08T16:26:23;6.20;;;4.77;;
65567;SDS011;52211;50.154;8.682;2023-02-08T16:28:58;6.73;;;5.43;;
65567;SDS011;52211;50.154;8.682;2023-02-08T16:34:45;8.20;;;5.60;;
65567;SDS011;52211;50.154;8.682;2023-02-08T16:37:26;6.53;;;5.77;;
65567;SDS011;52211;50.154;8.682;2023-02-08T16:46:14;6.07;;;5.23;;
65567;SDS011;52211;50.154;8.682;2023-02-08T16:48:40;6.13;;;4.97;;
65567;SDS011;52211;50.154;8.682;2023-02-08T16:51:13;7.53;;;5.30;;
65567;SDS011;52211;50.154;8.682;2023-02-08T16:53:54;7.47;;;5.43;;
65567;SDS011;52211;50.154;8.682;2023-02-08T16:56:37;8.63;;;7.33;;
65567;SDS011;52211;50.154;8.682;2023-02-08T16:59:12;10.47;;;7.80;;
65567;SDS011;52211;50.154;8.682;2023-02-08T17:01:39;11.87;;;9.30;;
65567;SDS011;52211;50.154;8.682;2023-02-08T17:04:11;10.63;;;8.83;;
65567;SDS011;52211;50.154;8.682;2023-02-08T17:06:44;9.77;;;7.67;;
65567;SDS011;52211;50.154;8.682;2023-02-08T17:09:12;10.77;;;8.57;;
65567;SDS011;52211;50.154;8.682;2023-02-08T17:11:39;9.87;;;8.37;;
65567;SDS011;52211;50.154;8.682;2023-02-08T17:14:11;11.20;;;9.27;;
65567;SDS011;52211;50.154;8.682;2023-02-08T17:16:40;11.23;;;9.17;;
65567;SDS011;52211;50.154;8.682;2023-02-08T17:19:09;9.53;;;7.67;;
65567;SDS011;52211;50.154;8.682;2023-02-08T17:21:44;10.70;;;7.30;;
65567;SDS011;52211;50.154;8.682;2023-02-08T17:24:10;8.47;;;6.90;;
65567;SDS011;52211;50.154;8.682;2023-02-08T17:26:41;7.90;;;7.07;;
65567;SDS011;52211;50.154;8.682;2023-02-08T17:29:12;8.60;;;5.77;;
65567;SDS011;52211;50.154;8.682;2023-02-08T17:31:43;9.60;;;6.43;;
65567;SDS011;52211;50.154;8.682;2023-02-08T17:34:13;9.40;;;6.97;;
65567;SDS011;52211;50.154;8.682;2023-02-08T17:36:47;8.83;;;6.30;;
65567;SDS011;52211;50.154;8.682;2023-02-08T17:39:19;8.00;;;6.07;;
65567;SDS011;52211;50.154;8.682;2023-02-08T17:41:46;9.70;;;6.80;;
65567;SDS011;52211;50.154;8.682;2023-02-08T17:44:15;8.50;;;6.07;;
65567;SDS011;52211;50.154;8.682;2023-02-08T17:46:46;8.13;;;5.57;;
65567;SDS011;52211;50.154;8.682;2023-02-08T17:49:13;7.87;;;6.00;;
65567;SDS011;52211;50.154;8.682;2023-02-08T17:51:47;8.30;;;6.43;;
65567;SDS011;52211;50.154;8.682;2023-02-08T17:54:14;8.87;;;6.13;;
65567;SDS011;52211;50.154;8.682;2023-02-08T17:56:41;10.10;;;6.53;;
65567;SDS011;52211;50.154;8.682;2023-02-08T17:59:08;8.63;;;6.83;;
65567;SDS011;52211;50.154;8.682;2023-02-08T18:01:38;8.40;;;5.93;;